ePrivacy and GPDR Cookie Consent by Cookie Consent
EmailTwitter


Observations de surface / Québec / CYND

Régions: Québec | Canada | États-Unis | Europe | France | UK | Ailleurs
Station
Affichage
Infos & localisation pour CYND | Aide pour décoder les METARs

Observations prises le 2022-07-05 à 00H00 UTC à OTTAWA GATINEAU, QB (CYND)

Etat du ciel: partiellement nuageux.

Température: 23.0 Celsius

Point de rosée: 12.0 Celsius

Humidité relative: 50%

Indice Humidex 25.

Vents: Nord-ouest à 6 km/h ou 3 noeuds.

Pression au niveau moyen de la mer: 101.73 kilopascals.

Calage altimétrique: 101.69 kilopascals ou 30.03 pouces de mercure.

Visibilité horizontale: 15.00 milles terrestres ou 24.00 kilomètres.

Hauteur du plafond: 7315 mètres ( 24000 pieds ).

Observation METAR:

CYND 050000Z 32003KT 15SM FEW080 FEW190 BKN240 23/12 A3003 RMK AC1AS2CI5 AC TR

SLP173 DENSITY ALT 1100FT=